EGSS/STN METAR and TAF weather

Enter ICAO airport designator
Station Type Date Time Source
EGSS METAR 2019/05/25 09:20 UTC NOAA

EGSS 250920Z AUTO 29007KT 250V360 9999 FEW025 BKN030 17/10 Q1019


Station Type Date Time Source
EGSS Decoded METAR 2019/05/25 09:20 UTC NOAA

Stansted Airport, United Kingdom (EGSS) 51-53N 000-14E 0M
May 25, 2019 - 05:20 AM EDT / 2019.05.25 0920 UTC
Wind: from the WNW (290 degrees) at 8 MPH (7 KT) (direction variable):0
Visibility: greater than 7 mile(s):0
Sky conditions: mostly cloudy
Temperature: 62 F (17 C)
Dew Point: 50 F (10 C)
Relative Humidity: 63%
Pressure (altimeter): 30.09 in. Hg (1019 hPa)
ob: EGSS 250920Z AUTO 29007KT 250V360 9999 FEW025 BKN030 17/10 Q1019
cycle: 9

Station Type Date Time Source
EGSS TAF 2019/05/25 06:57 UTC NOAA

TAF
AMD TAF
AMD EGSS 250554Z 2506/2612 31005KT 9999 FEW035 PROB30 2506/2509 7000 -RA BKN009
BECMG 2607/2610 BKN007 PROB40
TEMPO 2607/2610 4000 RADZ BKN002

Example: see airport list